地図

経路データ

SID SEASON NUMBER BASIN SUBBASIN NAME ISO_TIME NATURE LAT LON WMO_WIND WMO_PRES WMO_AGENCY TRACK_TYPE DIST2LAND LANDFALL IFLAG USA_AGENCY USA_ATCF_ID USA_LAT USA_LON USA_RECORD USA_STATUS USA_WIND USA_PRES USA_SSHS USA_R34_NE USA_R34_SE USA_R34_SW USA_R34_NW USA_R50_NE USA_R50_SE USA_R50_SW USA_R50_NW USA_R64_NE USA_R64_SE USA_R64_SW USA_R64_NW USA_POCI USA_ROCI USA_RMW USA_EYE TOKYO_LAT TOKYO_LON TOKYO_GRADE TOKYO_WIND TOKYO_PRES TOKYO_R50_DIR TOKYO_R50_LONG TOKYO_R50_SHORT TOKYO_R30_DIR TOKYO_R30_LONG TOKYO_R30_SHORT TOKYO_LAND CMA_LAT CMA_LON CMA_CAT CMA_WIND CMA_PRES HKO_LAT HKO_LON HKO_CAT HKO_WIND HKO_PRES NEWDELHI_LAT NEWDELHI_LON NEWDELHI_GRADE NEWDELHI_WIND NEWDELHI_PRES NEWDELHI_CI NEWDELHI_DP NEWDELHI_POCI REUNION_LAT REUNION_LON REUNION_TYPE REUNION_WIND REUNION_PRES REUNION_TNUM REUNION_CI REUNION_RMW REUNION_R34_NE REUNION_R34_SE REUNION_R34_SW REUNION_R34_NW REUNION_R50_NE REUNION_R50_SE REUNION_R50_SW REUNION_R50_NW REUNION_R64_NE REUNION_R64_SE REUNION_R64_SW REUNION_R64_NW BOM_LAT BOM_LON BOM_TYPE BOM_WIND BOM_PRES BOM_TNUM BOM_CI BOM_RMW BOM_R34_NE BOM_R34_SE BOM_R34_SW BOM_R34_NW BOM_R50_NE BOM_R50_SE BOM_R50_SW BOM_R50_NW BOM_R64_NE BOM_R64_SE BOM_R64_SW BOM_R64_NW BOM_ROCI BOM_POCI BOM_EYE BOM_POS_METHOD BOM_PRES_METHOD NADI_LAT NADI_LON NADI_CAT NADI_WIND NADI_PRES WELLINGTON_LAT WELLINGTON_LON WELLINGTON_WIND WELLINGTON_PRES DS824_LAT DS824_LON DS824_STAGE DS824_WIND DS824_PRES TD9636_LAT TD9636_LON TD9636_STAGE TD9636_WIND TD9636_PRES TD9635_LAT TD9635_LON TD9635_WIND TD9635_PRES TD9635_ROCI NEUMANN_LAT NEUMANN_LON NEUMANN_CLASS NEUMANN_WIND NEUMANN_PRES MLC_LAT MLC_LON MLC_CLASS MLC_WIND MLC_PRES USA_GUST BOM_GUST BOM_GUST_PER REUNION_GUST REUNION_GUST_PER USA_SEAHGT USA_SEARAD_NE USA_SEARAD_SE USA_SEARAD_SW USA_SEARAD_NW STORM_SPEED STORM_DIR
1896214N09136 1896 22 WP MM NOT_NAMED 1896-07-31 16:00:00 NR 8.70000 136.000 main 1041 788 __________O___ -1 8.70000 136.000 7 80 290
1896214N09136 1896 22 WP MM NOT_NAMED 1896-07-31 18:00:00 NR 9.58980 133.466 main 788 433 __________P___ -1 9.58980 133.466 7 78 289
1896214N09136 1896 22 WP MM NOT_NAMED 1896-07-31 21:00:00 NR 10.8461 129.787 main 433 111 __________P___ -1 10.8461 129.787 7 72 289
1896214N09136 1896 22 WP MM NOT_NAMED 1896-08-01 00:00:00 NR 11.9318 126.520 main 111 0 __________P___ -1 11.9318 126.520 7 60 289
1896214N09136 1896 22 WP MM NOT_NAMED 1896-08-01 03:00:00 NR 12.7794 123.953 main 0 0 __________P___ -1 12.7794 123.953 7 50 289
1896214N09136 1896 22 WP MM NOT_NAMED 1896-08-01 04:00:00 NR 13.0000 123.300 main 0 0 __________O___ -1 13.0000 123.300 4 34 290
1896214N09136 1896 22 WP MM NOT_NAMED 1896-08-01 06:00:00 NR 13.3461 122.327 main 24 0 __________P___ -1 13.3461 122.327 4 22 292
1896214N09136 1896 22 WP MM NOT_NAMED 1896-08-01 09:00:00 NR 13.6821 121.528 main 0 0 __________P___ -1 13.6821 121.528 4 12 297
1896214N09136 1896 22 WP MM NOT_NAMED 1896-08-01 12:00:00 NR 13.8844 121.221 main 0 0 __________P___ -1 13.8844 121.221 4 6 309
1896214N09136 1896 22 WP MM NOT_NAMED 1896-08-01 15:00:00 NR 14.0422 121.073 main 0 0 __________P___ -1 14.0422 121.073 4 5 315
1896214N09136 1896 22 WP MM NOT_NAMED 1896-08-01 16:00:00 NR 14.1000 121.000 main 0 0 __________O___ -1 14.1000 121.000 4 11 297
1896214N09136 1896 22 WP MM NOT_NAMED 1896-08-01 18:00:00 NR 14.2885 120.578 main 10 10 __________P___ -1 14.2885 120.578 4 14 294
1896214N09136 1896 22 WP MM NOT_NAMED 1896-08-01 21:00:00 NR 14.5714 119.927 main 31 31 __________P___ -1 14.5714 119.927 4 14 294
1896214N09136 1896 22 WP MM NOT_NAMED 1896-08-02 00:00:00 NR 14.8490 119.267 main 86 93 __________P___ -1 14.8490 119.267 4 14 293
1896214N09136 1896 22 WP MM NOT_NAMED 1896-08-02 03:00:00 NR 15.1150 118.614 main 143 143 __________P___ -1 15.1150 118.614 4 14 293
1896214N09136 1896 22 WP MM NOT_NAMED 1896-08-02 04:00:00 NR 15.2000 118.400 main 162 162 __________O___ -1 15.2000 118.400 4 13 292
1896214N09136 1896 22 WP MM NOT_NAMED 1896-08-02 06:00:00 NR 15.3611 117.978 main 194 204 __________P___ -1 15.3611 117.978 4 13 291
1896214N09136 1896 22 WP MM NOT_NAMED 1896-08-02 09:00:00 NR 15.5905 117.357 main 250 260 __________P___ -1 15.5905 117.357 4 13 291
1896214N09136 1896 22 WP MM NOT_NAMED 1896-08-02 12:00:00 NR 15.8105 116.757 main 311 321 __________P___ -1 15.8105 116.757 4 12 291
1896214N09136 1896 22 WP MM NOT_NAMED 1896-08-02 15:00:00 NR 16.0274 116.184 main 374 374 __________P___ -1 16.0274 116.184 4 12 292
1896214N09136 1896 22 WP MM NOT_NAMED 1896-08-02 16:00:00 NR 16.1000 116.000 main 395 395 __________O___ -1 16.1000 116.000 4 11 292
1896214N09136 1896 22 WP MM NOT_NAMED 1896-08-02 18:00:00 NR 16.2365 115.633 main 438 438 __________P___ -1 16.2365 115.633 4 11 292
1896214N09136 1896 22 WP MM NOT_NAMED 1896-08-02 21:00:00 NR 16.4414 115.107 main 493 493 __________P___ -1 16.4414 115.107 4 11 293
1896214N09136 1896 22 WP MM NOT_NAMED 1896-08-03 00:00:00 NR 16.6601 114.613 main 493 436 __________P___ -1 16.6601 114.613 4 10 297
1896214N09136 1896 22 WP MM NOT_NAMED 1896-08-03 03:00:00 NR 16.9081 114.148 main 436 421 __________P___ -1 16.9081 114.148 4 10 300
1896214N09136 1896 22 WP MM NOT_NAMED 1896-08-03 04:00:00 NR 17.0000 114.000 main 421 382 __________O___ -1 17.0000 114.000 4 10 304
1896214N09136 1896 22 WP MM NOT_NAMED 1896-08-03 06:00:00 NR 17.1886 113.715 main 382 329 __________P___ -1 17.1886 113.715 4 10 307
1896214N09136 1896 22 WP MM NOT_NAMED 1896-08-03 09:00:00 NR 17.5030 113.313 main 329 272 __________P___ -1 17.5030 113.313 4 10 312
1896214N09136 1896 22 WP MM NOT_NAMED 1896-08-03 12:00:00 NR 17.8580 112.926 main 272 214 __________P___ -1 17.8580 112.926 4 11 315
1896214N09136 1896 22 WP MM NOT_NAMED 1896-08-03 15:00:00 NR 18.2568 112.535 main 214 199 __________P___ -1 18.2568 112.535 4 11 317
1896214N09136 1896 22 WP MM NOT_NAMED 1896-08-03 16:00:00 NR 18.4000 112.400 main 199 153 __________O___ -1 18.4000 112.400 4 12 319
1896214N09136 1896 22 WP MM NOT_NAMED 1896-08-03 18:00:00 NR 18.7016 112.122 main 153 85 __________P___ -1 18.7016 112.122 4 13 319
1896214N09136 1896 22 WP MM NOT_NAMED 1896-08-03 21:00:00 NR 19.1857 111.684 main 85 23 __________P___ -1 19.1857 111.684 4 13 320
1896214N09136 1896 22 WP MM NOT_NAMED 1896-08-04 00:00:00 NR 19.6971 111.227 main 23 10 __________P___ -1 19.6971 111.227 4 14 320
1896214N09136 1896 22 WP MM NOT_NAMED 1896-08-04 03:00:00 NR 20.2234 110.758 main 15 15 __________P___ -1 20.2234 110.758 4 14 320
1896214N09136 1896 22 WP MM NOT_NAMED 1896-08-04 04:00:00 NR 20.4000 110.600 main 15 __________O___ -1 20.4000 110.600 4 14 320

デジタル台風データ・検索

IBTrACS Databaseについて

本データベースは、米国NOAAが公開する1842年以降の世界の熱帯低気圧のベストトラックデータアーカイブInternational Best Track Archive for Climate Stewardship (IBTrACS)を、ウェブで閲覧しやすい形式に変換したものです。

最終更新日:2021-11-26